sensor_id;sensor_type;location;lat;lon;timestamp;temperature;humidity
45237;DHT22;30973;51.442;3.580;2022-07-29T00:00:16;19.50;89.10
45237;DHT22;30973;51.442;3.580;2022-07-29T00:02:43;19.50;88.90
45237;DHT22;30973;51.442;3.580;2022-07-29T00:05:10;19.50;89.30
45237;DHT22;30973;51.442;3.580;2022-07-29T00:07:40;19.50;89.20
45237;DHT22;30973;51.442;3.580;2022-07-29T00:10:08;19.50;89.20
45237;DHT22;30973;51.442;3.580;2022-07-29T00:12:35;19.50;89.30
45237;DHT22;30973;51.442;3.580;2022-07-29T00:15:03;19.40;89.50
45237;DHT22;30973;51.442;3.580;2022-07-29T00:17:31;19.50;89.20
45237;DHT22;30973;51.442;3.580;2022-07-29T00:19:58;19.50;89.30
45237;DHT22;30973;51.442;3.580;2022-07-29T00:22:25;19.50;89.50
45237;DHT22;30973;51.442;3.580;2022-07-29T00:24:52;19.50;89.30
45237;DHT22;30973;51.442;3.580;2022-07-29T00:27:20;19.40;89.70
45237;DHT22;30973;51.442;3.580;2022-07-29T00:29:47;19.40;89.70
45237;DHT22;30973;51.442;3.580;2022-07-29T00:32:14;19.40;89.70
45237;DHT22;30973;51.442;3.580;2022-07-29T00:34:42;19.40;89.50
45237;DHT22;30973;51.442;3.580;2022-07-29T00:37:28;19.40;89.90
45237;DHT22;30973;51.442;3.580;2022-07-29T00:39:55;19.40;89.80
45237;DHT22;30973;51.442;3.580;2022-07-29T00:42:22;19.40;90.10
45237;DHT22;30973;51.442;3.580;2022-07-29T00:44:49;19.40;90.00
45237;DHT22;30973;51.442;3.580;2022-07-29T00:47:17;19.40;90.10
45237;DHT22;30973;51.442;3.580;2022-07-29T00:49:44;19.40;90.00
45237;DHT22;30973;51.442;3.580;2022-07-29T00:52:11;19.30;90.00
45237;DHT22;30973;51.442;3.580;2022-07-29T00:54:42;19.30;90.10
45237;DHT22;30973;51.442;3.580;2022-07-29T00:57:11;19.20;90.30
45237;DHT22;30973;51.442;3.580;2022-07-29T00:59:40;19.20;90.10
45237;DHT22;30973;51.442;3.580;2022-07-29T01:02:07;19.20;90.30
45237;DHT22;30973;51.442;3.580;2022-07-29T01:04:34;19.20;90.30
45237;DHT22;30973;51.442;3.580;2022-07-29T01:07:03;19.20;90.30
45237;DHT22;30973;51.442;3.580;2022-07-29T01:09:34;19.20;90.30
45237;DHT22;30973;51.442;3.580;2022-07-29T01:12:23;19.20;90.30
45237;DHT22;30973;51.442;3.580;2022-07-29T01:14:52;19.10;90.50
45237;DHT22;30973;51.442;3.580;2022-07-29T01:17:33;19.20;90.50
45237;DHT22;30973;51.442;3.580;2022-07-29T01:25:48;19.10;90.70
45237;DHT22;30973;51.442;3.580;2022-07-29T01:31:10;19.10;90.90
45237;DHT22;30973;51.442;3.580;2022-07-29T01:33:57;19.00;90.90
45237;DHT22;30973;51.442;3.580;2022-07-29T01:36:38;19.00;90.90
45237;DHT22;30973;51.442;3.580;2022-07-29T01:39:15;19.00;91.20
45237;DHT22;30973;51.442;3.580;2022-07-29T01:41:50;19.00;91.00
45237;DHT22;30973;51.442;3.580;2022-07-29T01:44:39;19.00;91.50
45237;DHT22;30973;51.442;3.580;2022-07-29T01:47:15;18.90;91.50
45237;DHT22;30973;51.442;3.580;2022-07-29T01:49:48;18.90;91.90
45237;DHT22;30973;51.442;3.580;2022-07-29T01:52:31;18.80;91.60
45237;DHT22;30973;51.442;3.580;2022-07-29T01:55:12;18.80;91.70
45237;DHT22;30973;51.442;3.580;2022-07-29T01:57:44;18.80;92.00
45237;DHT22;30973;51.442;3.580;2022-07-29T02:00:13;18.70;91.70
45237;DHT22;30973;51.442;3.580;2022-07-29T02:02:43;18.70;91.60
45237;DHT22;30973;51.442;3.580;2022-07-29T02:05:14;18.70;91.80
45237;DHT22;30973;51.442;3.580;2022-07-29T02:07:43;18.70;91.80
45237;DHT22;30973;51.442;3.580;2022-07-29T02:10:12;18.80;91.50
45237;DHT22;30973;51.442;3.580;2022-07-29T02:12:42;18.80;91.80
45237;DHT22;30973;51.442;3.580;2022-07-29T02:15:17;18.70;91.80
45237;DHT22;30973;51.442;3.580;2022-07-29T02:17:50;18.70;91.70
45237;DHT22;30973;51.442;3.580;2022-07-29T02:20:18;18.70;91.70
45237;DHT22;30973;51.442;3.580;2022-07-29T02:22:46;18.70;92.00
45237;DHT22;30973;51.442;3.580;2022-07-29T02:25:16;18.70;91.80
45237;DHT22;30973;51.442;3.580;2022-07-29T02:27:44;18.60;91.70
45237;DHT22;30973;51.442;3.580;2022-07-29T02:30:12;18.70;91.90
45237;DHT22;30973;51.442;3.580;2022-07-29T02:32:41;18.70;92.10
45237;DHT22;30973;51.442;3.580;2022-07-29T02:35:09;18.60;92.10
45237;DHT22;30973;51.442;3.580;2022-07-29T02:37:40;18.70;92.10
45237;DHT22;30973;51.442;3.580;2022-07-29T02:40:10;18.70;92.30
45237;DHT22;30973;51.442;3.580;2022-07-29T02:42:41;18.60;92.10
45237;DHT22;30973;51.442;3.580;2022-07-29T02:45:09;18.50;92.50
45237;DHT22;30973;51.442;3.580;2022-07-29T02:47:40;18.60;92.50
45237;DHT22;30973;51.442;3.580;2022-07-29T02:50:17;18.50;92.20
45237;DHT22;30973;51.442;3.580;2022-07-29T02:52:47;18.50;92.20
45237;DHT22;30973;51.442;3.580;2022-07-29T02:55:34;18.50;92.20
45237;DHT22;30973;51.442;3.580;2022-07-29T02:58:20;18.50;92.20
45237;DHT22;30973;51.442;3.580;2022-07-29T03:00:50;18.50;92.10
45237;DHT22;30973;51.442;3.580;2022-07-29T03:03:19;18.40;92.20
45237;DHT22;30973;51.442;3.580;2022-07-29T03:05:48;18.40;92.20
45237;DHT22;30973;51.442;3.580;2022-07-29T03:08:15;18.40;92.80
45237;DHT22;30973;51.442;3.580;2022-07-29T03:10:45;18.30;92.70
45237;DHT22;30973;51.442;3.580;2022-07-29T03:13:14;18.30;92.50
45237;DHT22;30973;51.442;3.580;2022-07-29T03:15:44;18.30;92.70
45237;DHT22;30973;51.442;3.580;2022-07-29T03:18:13;18.20;92.80
45237;DHT22;30973;51.442;3.580;2022-07-29T03:20:42;18.20;92.90
45237;DHT22;30973;51.442;3.580;2022-07-29T03:23:09;18.20;93.10
45237;DHT22;30973;51.442;3.580;2022-07-29T03:25:36;18.20;93.00
45237;DHT22;30973;51.442;3.580;2022-07-29T03:28:04;18.20;93.00
45237;DHT22;30973;51.442;3.580;2022-07-29T03:30:31;18.20;93.20
45237;DHT22;30973;51.442;3.580;2022-07-29T03:32:58;18.10;92.90
45237;DHT22;30973;51.442;3.580;2022-07-29T03:35:26;18.10;93.40
45237;DHT22;30973;51.442;3.580;2022-07-29T03:37:53;18.00;93.00
45237;DHT22;30973;51.442;3.580;2022-07-29T03:40:57;18.10;93.10
45237;DHT22;30973;51.442;3.580;2022-07-29T03:43:31;18.00;93.20
45237;DHT22;30973;51.442;3.580;2022-07-29T03:46:00;18.00;93.20
45237;DHT22;30973;51.442;3.580;2022-07-29T03:48:30;18.00;93.30
45237;DHT22;30973;51.442;3.580;2022-07-29T03:50:59;18.00;93.40
45237;DHT22;30973;51.442;3.580;2022-07-29T03:53:27;18.10;93.30
45237;DHT22;30973;51.442;3.580;2022-07-29T03:55:58;18.10;93.10
45237;DHT22;30973;51.442;3.580;2022-07-29T03:58:27;18.10;92.90
45237;DHT22;30973;51.442;3.580;2022-07-29T04:00:55;18.10;93.00
45237;DHT22;30973;51.442;3.580;2022-07-29T04:03:22;18.10;93.20
45237;DHT22;30973;51.442;3.580;2022-07-29T04:06:01;18.00;93.30
45237;DHT22;30973;51.442;3.580;2022-07-29T04:08:29;18.00;93.00
45237;DHT22;30973;51.442;3.580;2022-07-29T04:10:56;17.90;92.90
45237;DHT22;30973;51.442;3.580;2022-07-29T04:13:23;18.00;92.90
45237;DHT22;30973;51.442;3.580;2022-07-29T04:15:51;18.00;93.20
45237;DHT22;30973;51.442;3.580;2022-07-29T04:18:18;18.00;93.20
45237;DHT22;30973;51.442;3.580;2022-07-29T04:20:45;18.00;93.00
45237;DHT22;30973;51.442;3.580;2022-07-29T04:23:12;18.00;93.60
45237;DHT22;30973;51.442;3.580;2022-07-29T04:25:40;18.00;93.40
45237;DHT22;30973;51.442;3.580;2022-07-29T04:28:09;18.00;93.40
45237;DHT22;30973;51.442;3.580;2022-07-29T04:30:38;17.90;93.30
45237;DHT22;30973;51.442;3.580;2022-07-29T04:33:07;17.90;93.20
45237;DHT22;30973;51.442;3.580;2022-07-29T04:35:36;17.90;93.30
45237;DHT22;30973;51.442;3.580;2022-07-29T04:38:16;18.00;93.80
45237;DHT22;30973;51.442;3.580;2022-07-29T04:40:44;17.90;93.40
45237;DHT22;30973;51.442;3.580;2022-07-29T04:43:12;17.90;93.80
45237;DHT22;30973;51.442;3.580;2022-07-29T04:45:41;18.00;93.70
45237;DHT22;30973;51.442;3.580;2022-07-29T04:48:08;17.90;93.80
45237;DHT22;30973;51.442;3.580;2022-07-29T04:50:38;17.90;93.70
45237;DHT22;30973;51.442;3.580;2022-07-29T04:53:07;17.90;93.60
45237;DHT22;30973;51.442;3.580;2022-07-29T04:55:34;18.00;93.80
45237;DHT22;30973;51.442;3.580;2022-07-29T04:58:05;18.00;94.20
45237;DHT22;30973;51.442;3.580;2022-07-29T05:00:32;18.00;94.10
45237;DHT22;30973;51.442;3.580;2022-07-29T05:02:59;18.10;94.00
45237;DHT22;30973;51.442;3.580;2022-07-29T05:05:27;18.10;94.00
45237;DHT22;30973;51.442;3.580;2022-07-29T05:07:54;18.00;94.30
45237;DHT22;30973;51.442;3.580;2022-07-29T05:10:22;18.10;94.20
45237;DHT22;30973;51.442;3.580;2022-07-29T05:12:49;18.10;94.00
45237;DHT22;30973;51.442;3.580;2022-07-29T05:15:17;18.10;94.00
45237;DHT22;30973;51.442;3.580;2022-07-29T05:17:44;18.10;94.10
45237;DHT22;30973;51.442;3.580;2022-07-29T05:20:12;18.20;94.10
45237;DHT22;30973;51.442;3.580;2022-07-29T05:22:39;18.20;94.10
45237;DHT22;30973;51.442;3.580;2022-07-29T05:25:06;18.30;94.30
45237;DHT22;30973;51.442;3.580;2022-07-29T05:27:36;18.30;94.00
45237;DHT22;30973;51.442;3.580;2022-07-29T05:30:04;18.40;94.20
45237;DHT22;30973;51.442;3.580;2022-07-29T05:32:31;18.40;94.20
45237;DHT22;30973;51.442;3.580;2022-07-29T05:34:58;18.50;94.10
45237;DHT22;30973;51.442;3.580;2022-07-29T05:37:26;18.50;94.10
45237;DHT22;30973;51.442;3.580;2022-07-29T05:39:53;18.50;93.90
45237;DHT22;30973;51.442;3.580;2022-07-29T05:42:24;18.50;94.00
45237;DHT22;30973;51.442;3.580;2022-07-29T05:44:52;18.60;94.20
45237;DHT22;30973;51.442;3.580;2022-07-29T05:47:19;18.60;94.20
45237;DHT22;30973;51.442;3.580;2022-07-29T05:49:47;18.70;94.20
45237;DHT22;30973;51.442;3.580;2022-07-29T05:52:15;18.70;94.10
45237;DHT22;30973;51.442;3.580;2022-07-29T05:54:42;18.70;94.20
45237;DHT22;30973;51.442;3.580;2022-07-29T05:57:22;18.80;94.20
45237;DHT22;30973;51.442;3.580;2022-07-29T05:59:50;18.90;94.30
45237;DHT22;30973;51.442;3.580;2022-07-29T06:02:17;19.00;94.20
45237;DHT22;30973;51.442;3.580;2022-07-29T06:04:45;19.70;94.90
45237;DHT22;30973;51.442;3.580;2022-07-29T06:07:12;20.90;94.80
45237;DHT22;30973;51.442;3.580;2022-07-29T06:09:40;22.10;93.50
45237;DHT22;30973;51.442;3.580;2022-07-29T06:12:07;23.20;92.10
45237;DHT22;30973;51.442;3.580;2022-07-29T06:14:35;24.00;91.40
45237;DHT22;30973;51.442;3.580;2022-07-29T06:17:02;24.80;91.00
45237;DHT22;30973;51.442;3.580;2022-07-29T06:19:29;25.40;89.90
45237;DHT22;30973;51.442;3.580;2022-07-29T06:21:56;26.00;87.50
45237;DHT22;30973;51.442;3.580;2022-07-29T06:24:24;26.20;84.80
45237;DHT22;30973;51.442;3.580;2022-07-29T06:26:51;26.50;87.60
45237;DHT22;30973;51.442;3.580;2022-07-29T06:29:18;27.00;85.20
45237;DHT22;30973;51.442;3.580;2022-07-29T06:31:45;27.30;83.50
45237;DHT22;30973;51.442;3.580;2022-07-29T06:34:12;27.80;82.50
45237;DHT22;30973;51.442;3.580;2022-07-29T06:36:41;28.20;81.70
45237;DHT22;30973;51.442;3.580;2022-07-29T06:39:08;28.60;80.90
45237;DHT22;30973;51.442;3.580;2022-07-29T06:41:38;28.90;81.20
45237;DHT22;30973;51.442;3.580;2022-07-29T06:44:09;29.10;78.20
45237;DHT22;30973;51.442;3.580;2022-07-29T06:46:36;29.30;78.60
45237;DHT22;30973;51.442;3.580;2022-07-29T06:49:04;29.70;79.00
45237;DHT22;30973;51.442;3.580;2022-07-29T06:51:31;29.80;77.80
45237;DHT22;30973;51.442;3.580;2022-07-29T06:53:59;29.90;75.10
45237;DHT22;30973;51.442;3.580;2022-07-29T06:56:47;29.80;76.30
45237;DHT22;30973;51.442;3.580;2022-07-29T06:59:15;30.10;76.00
45237;DHT22;30973;51.442;3.580;2022-07-29T07:01:43;30.30;74.70
45237;DHT22;30973;51.442;3.580;2022-07-29T07:04:11;30.50;74.20
45237;DHT22;30973;51.442;3.580;2022-07-29T07:06:39;30.70;75.00
45237;DHT22;30973;51.442;3.580;2022-07-29T07:09:06;30.90;71.70
45237;DHT22;30973;51.442;3.580;2022-07-29T07:11:34;31.00;72.20
45237;DHT22;30973;51.442;3.580;2022-07-29T07:14:02;31.10;73.70
45237;DHT22;30973;51.442;3.580;2022-07-29T07:16:31;31.30;73.50
45237;DHT22;30973;51.442;3.580;2022-07-29T07:18:59;31.30;71.00
45237;DHT22;30973;51.442;3.580;2022-07-29T07:21:26;31.20;72.00
45237;DHT22;30973;51.442;3.580;2022-07-29T07:23:56;31.00;70.50
45237;DHT22;30973;51.442;3.580;2022-07-29T07:26:24;30.90;71.20
45237;DHT22;30973;51.442;3.580;2022-07-29T07:28:52;30.80;70.10
45237;DHT22;30973;51.442;3.580;2022-07-29T07:31:19;30.90;70.40
45237;DHT22;30973;51.442;3.580;2022-07-29T07:33:47;30.80;70.20
45237;DHT22;30973;51.442;3.580;2022-07-29T07:36:14;30.80;71.60
45237;DHT22;30973;51.442;3.580;2022-07-29T07:38:42;30.70;71.60
45237;DHT22;30973;51.442;3.580;2022-07-29T07:41:09;30.40;70.60
45237;DHT22;30973;51.442;3.580;2022-07-29T07:43:36;30.00;70.90
45237;DHT22;30973;51.442;3.580;2022-07-29T07:46:04;29.60;71.60
45237;DHT22;30973;51.442;3.580;2022-07-29T07:48:31;29.10;71.60
45237;DHT22;30973;51.442;3.580;2022-07-29T07:50:58;28.80;72.70
45237;DHT22;30973;51.442;3.580;2022-07-29T07:53:26;28.50;73.40
45237;DHT22;30973;51.442;3.580;2022-07-29T07:55:53;28.20;73.90
45237;DHT22;30973;51.442;3.580;2022-07-29T07:58:38;28.00;73.80
45237;DHT22;30973;51.442;3.580;2022-07-29T08:01:06;27.70;72.50
45237;DHT22;30973;51.442;3.580;2022-07-29T08:03:34;27.50;73.80
45237;DHT22;30973;51.442;3.580;2022-07-29T08:06:03;27.40;74.20
45237;DHT22;30973;51.442;3.580;2022-07-29T08:08:30;27.30;74.60
45237;DHT22;30973;51.442;3.580;2022-07-29T08:10:57;27.20;74.20
45237;DHT22;30973;51.442;3.580;2022-07-29T08:13:31;27.10;74.90
45237;DHT22;30973;51.442;3.580;2022-07-29T08:16:00;27.00;74.80
45237;DHT22;30973;51.442;3.580;2022-07-29T08:18:30;27.00;75.90
45237;DHT22;30973;51.442;3.580;2022-07-29T08:20:58;27.00;76.20
45237;DHT22;30973;51.442;3.580;2022-07-29T08:23:26;26.90;76.30
45237;DHT22;30973;51.442;3.580;2022-07-29T08:26:15;27.00;76.60
45237;DHT22;30973;51.442;3.580;2022-07-29T08:28:44;27.00;77.20
45237;DHT22;30973;51.442;3.580;2022-07-29T08:31:13;27.00;76.20
45237;DHT22;30973;51.442;3.580;2022-07-29T08:33:41;27.00;75.90
45237;DHT22;30973;51.442;3.580;2022-07-29T08:36:08;27.00;75.70
45237;DHT22;30973;51.442;3.580;2022-07-29T08:38:35;27.00;76.20
45237;DHT22;30973;51.442;3.580;2022-07-29T08:41:03;27.00;75.20
45237;DHT22;30973;51.442;3.580;2022-07-29T08:43:30;27.00;75.00
45237;DHT22;30973;51.442;3.580;2022-07-29T08:45:57;27.00;74.70
45237;DHT22;30973;51.442;3.580;2022-07-29T08:48:25;27.10;74.40
45237;DHT22;30973;51.442;3.580;2022-07-29T08:50:54;27.10;74.30
45237;DHT22;30973;51.442;3.580;2022-07-29T08:53:24;27.20;74.40
45237;DHT22;30973;51.442;3.580;2022-07-29T08:55:53;27.30;74.30
45237;DHT22;30973;51.442;3.580;2022-07-29T08:58:21;27.30;73.50
45237;DHT22;30973;51.442;3.580;2022-07-29T09:00:54;27.30;73.90
45237;DHT22;30973;51.442;3.580;2022-07-29T09:03:29;27.40;73.80
45237;DHT22;30973;51.442;3.580;2022-07-29T09:05:58;27.50;72.50
45237;DHT22;30973;51.442;3.580;2022-07-29T09:08:25;27.50;72.80
45237;DHT22;30973;51.442;3.580;2022-07-29T09:10:53;27.60;72.20
45237;DHT22;30973;51.442;3.580;2022-07-29T09:13:21;27.70;74.00
45237;DHT22;30973;51.442;3.580;2022-07-29T09:15:49;27.70;72.50
45237;DHT22;30973;51.442;3.580;2022-07-29T09:21:04;27.80;72.00
45237;DHT22;30973;51.442;3.580;2022-07-29T09:24:13;27.80;71.60
45237;DHT22;30973;51.442;3.580;2022-07-29T09:26:42;27.90;72.20
45237;DHT22;30973;51.442;3.580;2022-07-29T09:29:15;27.90;71.20
45237;DHT22;30973;51.442;3.580;2022-07-29T09:31:47;28.00;72.00
45237;DHT22;30973;51.442;3.580;2022-07-29T09:34:24;28.10;71.60
45237;DHT22;30973;51.442;3.580;2022-07-29T09:36:53;28.30;71.30
45237;DHT22;30973;51.442;3.580;2022-07-29T09:39:31;28.30;70.80
45237;DHT22;30973;51.442;3.580;2022-07-29T09:42:01;28.30;71.00
45237;DHT22;30973;51.442;3.580;2022-07-29T09:44:45;28.40;71.70
45237;DHT22;30973;51.442;3.580;2022-07-29T09:47:13;28.50;72.10
45237;DHT22;30973;51.442;3.580;2022-07-29T09:49:53;28.50;70.90
45237;DHT22;30973;51.442;3.580;2022-07-29T09:52:20;28.60;71.10
45237;DHT22;30973;51.442;3.580;2022-07-29T09:54:48;28.60;71.00
45237;DHT22;30973;51.442;3.580;2022-07-29T09:57:23;28.70;70.70
45237;DHT22;30973;51.442;3.580;2022-07-29T10:00:04;28.70;70.90
45237;DHT22;30973;51.442;3.580;2022-07-29T10:02:41;28.70;71.50
45237;DHT22;30973;51.442;3.580;2022-07-29T10:05:23;28.80;71.50
45237;DHT22;30973;51.442;3.580;2022-07-29T10:07:54;28.80;69.80
45237;DHT22;30973;51.442;3.580;2022-07-29T10:10:47;28.90;69.90
45237;DHT22;30973;51.442;3.580;2022-07-29T10:13:13;29.00;70.60
45237;DHT22;30973;51.442;3.580;2022-07-29T10:15:43;28.90;70.50
45237;DHT22;30973;51.442;3.580;2022-07-29T10:18:14;29.00;70.30
45237;DHT22;30973;51.442;3.580;2022-07-29T10:20:44;28.90;69.80
45237;DHT22;30973;51.442;3.580;2022-07-29T10:23:11;28.90;68.90
45237;DHT22;30973;51.442;3.580;2022-07-29T10:25:39;29.00;69.20
45237;DHT22;30973;51.442;3.580;2022-07-29T10:28:12;28.90;68.70
45237;DHT22;30973;51.442;3.580;2022-07-29T10:30:43;29.10;69.70
45237;DHT22;30973;51.442;3.580;2022-07-29T10:44:23;29.40;69.40
45237;DHT22;30973;51.442;3.580;2022-07-29T10:46:52;29.50;70.10
45237;DHT22;30973;51.442;3.580;2022-07-29T10:49:25;29.50;70.00
45237;DHT22;30973;51.442;3.580;2022-07-29T10:52:05;29.50;69.30
45237;DHT22;30973;51.442;3.580;2022-07-29T10:57:17;29.60;67.80
45237;DHT22;30973;51.442;3.580;2022-07-29T11:05:15;29.60;67.40
45237;DHT22;30973;51.442;3.580;2022-07-29T11:10:53;29.70;66.10
45237;DHT22;30973;51.442;3.580;2022-07-29T11:13:49;29.50;66.10
45237;DHT22;30973;51.442;3.580;2022-07-29T11:16:19;29.60;66.50
45237;DHT22;30973;51.442;3.580;2022-07-29T11:21:44;29.70;66.20
45237;DHT22;30973;51.442;3.580;2022-07-29T11:24:34;29.80;66.20
45237;DHT22;30973;51.442;3.580;2022-07-29T11:27:18;29.80;67.10
45237;DHT22;30973;51.442;3.580;2022-07-29T11:29:55;29.90;66.70
45237;DHT22;30973;51.442;3.580;2022-07-29T11:32:44;29.90;66.10
45237;DHT22;30973;51.442;3.580;2022-07-29T11:35:21;29.90;66.20
45237;DHT22;30973;51.442;3.580;2022-07-29T11:38:25;29.90;65.60
45237;DHT22;30973;51.442;3.580;2022-07-29T11:43:48;29.90;66.40
45237;DHT22;30973;51.442;3.580;2022-07-29T11:49:09;30.10;66.90
45237;DHT22;30973;51.442;3.580;2022-07-29T11:51:41;30.10;66.60
45237;DHT22;30973;51.442;3.580;2022-07-29T11:54:17;30.20;67.40
45237;DHT22;30973;51.442;3.580;2022-07-29T11:57:09;30.30;67.00
45237;DHT22;30973;51.442;3.580;2022-07-29T11:59:42;30.30;65.30
45237;DHT22;30973;51.442;3.580;2022-07-29T12:02:11;30.20;66.50
45237;DHT22;30973;51.442;3.580;2022-07-29T12:04:58;30.00;66.00
45237;DHT22;30973;51.442;3.580;2022-07-29T12:07:38;29.90;67.30
45237;DHT22;30973;51.442;3.580;2022-07-29T12:10:11;29.90;66.60
45237;DHT22;30973;51.442;3.580;2022-07-29T12:12:56;29.90;66.80
45237;DHT22;30973;51.442;3.580;2022-07-29T12:15:23;30.00;66.90
45237;DHT22;30973;51.442;3.580;2022-07-29T12:18:17;30.10;66.10
45237;DHT22;30973;51.442;3.580;2022-07-29T12:20:45;30.20;66.10
45237;DHT22;30973;51.442;3.580;2022-07-29T12:23:13;30.20;65.00
45237;DHT22;30973;51.442;3.580;2022-07-29T12:25:43;30.20;65.80
45237;DHT22;30973;51.442;3.580;2022-07-29T12:28:15;30.30;66.50
45237;DHT22;30973;51.442;3.580;2022-07-29T12:30:53;30.30;66.20
45237;DHT22;30973;51.442;3.580;2022-07-29T12:33:28;30.40;66.80
45237;DHT22;30973;51.442;3.580;2022-07-29T12:35:58;30.40;66.20
45237;DHT22;30973;51.442;3.580;2022-07-29T12:38:40;30.40;67.00
45237;DHT22;30973;51.442;3.580;2022-07-29T12:41:07;30.40;66.40
45237;DHT22;30973;51.442;3.580;2022-07-29T12:43:34;30.40;66.40
45237;DHT22;30973;51.442;3.580;2022-07-29T12:46:13;30.50;66.20
45237;DHT22;30973;51.442;3.580;2022-07-29T12:48:43;30.40;66.40
45237;DHT22;30973;51.442;3.580;2022-07-29T12:51:11;30.50;65.70
45237;DHT22;30973;51.442;3.580;2022-07-29T12:53:41;30.40;65.00
45237;DHT22;30973;51.442;3.580;2022-07-29T12:56:28;30.40;65.50
45237;DHT22;30973;51.442;3.580;2022-07-29T12:59:21;30.30;64.90
45237;DHT22;30973;51.442;3.580;2022-07-29T13:01:51;30.30;65.70
45237;DHT22;30973;51.442;3.580;2022-07-29T13:04:32;30.30;66.60
45237;DHT22;30973;51.442;3.580;2022-07-29T13:07:04;30.30;65.90
45237;DHT22;30973;51.442;3.580;2022-07-29T13:09:44;30.30;65.30
45237;DHT22;30973;51.442;3.580;2022-07-29T13:12:13;30.30;65.40
45237;DHT22;30973;51.442;3.580;2022-07-29T13:14:44;30.20;65.70
45237;DHT22;30973;51.442;3.580;2022-07-29T13:17:20;30.30;65.60
45237;DHT22;30973;51.442;3.580;2022-07-29T13:19:53;30.20;65.80
45237;DHT22;30973;51.442;3.580;2022-07-29T13:22:22;30.20;65.50
45237;DHT22;30973;51.442;3.580;2022-07-29T13:24:55;30.10;65.30
45237;DHT22;30973;51.442;3.580;2022-07-29T13:27:27;30.00;65.10
45237;DHT22;30973;51.442;3.580;2022-07-29T13:29:56;30.00;65.10
45237;DHT22;30973;51.442;3.580;2022-07-29T13:32:25;30.00;66.20
45237;DHT22;30973;51.442;3.580;2022-07-29T13:34:59;30.00;65.90
45237;DHT22;30973;51.442;3.580;2022-07-29T13:37:31;30.00;65.70
45237;DHT22;30973;51.442;3.580;2022-07-29T13:40:03;29.90;65.40
45237;DHT22;30973;51.442;3.580;2022-07-29T13:42:34;29.90;65.80
45237;DHT22;30973;51.442;3.580;2022-07-29T13:45:02;29.90;65.90
45237;DHT22;30973;51.442;3.580;2022-07-29T13:47:30;29.90;66.00
45237;DHT22;30973;51.442;3.580;2022-07-29T13:50:04;29.80;66.20
45237;DHT22;30973;51.442;3.580;2022-07-29T13:52:33;29.80;66.60
45237;DHT22;30973;51.442;3.580;2022-07-29T13:55:01;29.80;65.30
45237;DHT22;30973;51.442;3.580;2022-07-29T13:57:28;29.70;65.70
45237;DHT22;30973;51.442;3.580;2022-07-29T13:59:56;29.70;65.70
45237;DHT22;30973;51.442;3.580;2022-07-29T14:02:23;29.60;66.10
45237;DHT22;30973;51.442;3.580;2022-07-29T14:04:53;29.60;66.80
45237;DHT22;30973;51.442;3.580;2022-07-29T14:07:21;29.60;65.90
45237;DHT22;30973;51.442;3.580;2022-07-29T14:09:49;29.50;66.70
45237;DHT22;30973;51.442;3.580;2022-07-29T14:12:17;29.50;66.50
45237;DHT22;30973;51.442;3.580;2022-07-29T14:14:44;29.40;66.80
45237;DHT22;30973;51.442;3.580;2022-07-29T14:17:13;29.40;66.40
45237;DHT22;30973;51.442;3.580;2022-07-29T14:19:41;29.30;67.10
45237;DHT22;30973;51.442;3.580;2022-07-29T14:22:08;29.30;67.00
45237;DHT22;30973;51.442;3.580;2022-07-29T14:24:37;29.20;66.60
45237;DHT22;30973;51.442;3.580;2022-07-29T14:27:05;29.20;67.10
45237;DHT22;30973;51.442;3.580;2022-07-29T14:29:33;29.00;66.80
45237;DHT22;30973;51.442;3.580;2022-07-29T14:32:05;29.00;66.90
45237;DHT22;30973;51.442;3.580;2022-07-29T14:34:35;28.90;66.80
45237;DHT22;30973;51.442;3.580;2022-07-29T14:37:03;28.90;67.50
45237;DHT22;30973;51.442;3.580;2022-07-29T14:39:33;28.80;67.20
45237;DHT22;30973;51.442;3.580;2022-07-29T14:42:05;28.80;67.00
45237;DHT22;30973;51.442;3.580;2022-07-29T14:44:32;28.70;67.70
45237;DHT22;30973;51.442;3.580;2022-07-29T14:47:00;28.70;68.30
45237;DHT22;30973;51.442;3.580;2022-07-29T14:49:34;28.70;68.00
45237;DHT22;30973;51.442;3.580;2022-07-29T14:52:02;28.60;67.70
45237;DHT22;30973;51.442;3.580;2022-07-29T14:54:29;28.50;68.90
45237;DHT22;30973;51.442;3.580;2022-07-29T14:56:56;28.50;68.30
45237;DHT22;30973;51.442;3.580;2022-07-29T14:59:25;28.40;68.00
45237;DHT22;30973;51.442;3.580;2022-07-29T15:01:53;28.30;68.30
45237;DHT22;30973;51.442;3.580;2022-07-29T15:04:21;28.30;68.70
45237;DHT22;30973;51.442;3.580;2022-07-29T15:06:48;28.30;68.10
45237;DHT22;30973;51.442;3.580;2022-07-29T15:09:15;28.20;68.10
45237;DHT22;30973;51.442;3.580;2022-07-29T15:11:43;28.20;68.10
45237;DHT22;30973;51.442;3.580;2022-07-29T15:14:10;28.10;68.00
45237;DHT22;30973;51.442;3.580;2022-07-29T15:16:38;28.00;67.70
45237;DHT22;30973;51.442;3.580;2022-07-29T15:19:12;28.00;68.00
45237;DHT22;30973;51.442;3.580;2022-07-29T15:21:40;27.90;67.70
45237;DHT22;30973;51.442;3.580;2022-07-29T15:24:18;27.90;67.20
45237;DHT22;30973;51.442;3.580;2022-07-29T15:26:46;27.70;67.30
45237;DHT22;30973;51.442;3.580;2022-07-29T15:29:14;27.70;68.50
45237;DHT22;30973;51.442;3.580;2022-07-29T15:31:42;27.70;69.10
45237;DHT22;30973;51.442;3.580;2022-07-29T15:34:09;27.70;68.60
45237;DHT22;30973;51.442;3.580;2022-07-29T15:36:37;27.70;68.60
45237;DHT22;30973;51.442;3.580;2022-07-29T15:39:20;27.60;68.50
45237;DHT22;30973;51.442;3.580;2022-07-29T15:41:48;27.50;68.30
45237;DHT22;30973;51.442;3.580;2022-07-29T15:44:16;27.40;68.30
45237;DHT22;30973;51.442;3.580;2022-07-29T15:46:43;27.40;68.00
45237;DHT22;30973;51.442;3.580;2022-07-29T15:49:30;27.20;68.00
45237;DHT22;30973;51.442;3.580;2022-07-29T15:52:18;27.20;68.50
45237;DHT22;30973;51.442;3.580;2022-07-29T15:54:53;27.20;68.70
45237;DHT22;30973;51.442;3.580;2022-07-29T15:57:21;27.10;69.00
45237;DHT22;30973;51.442;3.580;2022-07-29T15:59:49;27.10;68.40
45237;DHT22;30973;51.442;3.580;2022-07-29T16:02:16;27.00;68.00
45237;DHT22;30973;51.442;3.580;2022-07-29T16:04:43;26.90;68.00
45237;DHT22;30973;51.442;3.580;2022-07-29T16:07:11;26.90;68.50
45237;DHT22;30973;51.442;3.580;2022-07-29T16:09:40;26.80;68.70
45237;DHT22;30973;51.442;3.580;2022-07-29T16:12:08;26.80;68.70
45237;DHT22;30973;51.442;3.580;2022-07-29T16:14:44;26.70;68.90
45237;DHT22;30973;51.442;3.580;2022-07-29T16:17:11;26.70;69.60
45237;DHT22;30973;51.442;3.580;2022-07-29T16:19:41;26.70;70.30
45237;DHT22;30973;51.442;3.580;2022-07-29T16:22:09;26.60;69.20
45237;DHT22;30973;51.442;3.580;2022-07-29T16:24:37;26.60;70.20
45237;DHT22;30973;51.442;3.580;2022-07-29T16:27:05;26.50;69.80
45237;DHT22;30973;51.442;3.580;2022-07-29T16:29:32;26.40;69.00
45237;DHT22;30973;51.442;3.580;2022-07-29T16:32:00;26.40;69.60
45237;DHT22;30973;51.442;3.580;2022-07-29T16:34:27;26.30;69.30